Time;durP1;ratioP1;P1;durP2;ratioP2;P2;SDS_P1;SDS_P2;PMS_P1;PMS_P2;Temp;Humidity;BMP_temperature;BMP_pressure;BME280_temperature;BME280_humidity;BME280_pressure;Samples;Min_cycle;Max_cycle;Signal;HPM_P1;HPM_P2
2021/06/03 00:01:27;;;;;;;1.38;1.20;;;23.40;41.90;;;;;;5020125;28;20438;-96
2021/06/03 00:03:52;;;;;;;1.50;1.40;;;23.40;41.80;;;;;;5025356;28;20033;-95
2021/06/03 00:06:18;;;;;;;1.48;1.38;;;23.40;41.90;;;;;;4997644;28;20030;-95
2021/06/03 00:08:45;;;;;;;1.60;1.27;;;23.40;42.00;;;;;;4989785;28;20113;-96
2021/06/03 00:11:12;;;;;;;1.63;1.20;;;23.40;42.30;;;;;;5001637;28;20029;-96
2021/06/03 00:13:41;;;;;;;1.60;1.20;;;23.40;42.30;;;;;;5004226;28;20073;-96
2021/06/03 00:16:10;;;;;;;1.42;1.00;;;23.40;42.30;;;;;;5004334;28;20028;-94
2021/06/03 00:18:37;;;;;;;1.05;1.05;;;23.40;42.30;;;;;;5010663;28;20135;-96
2021/06/03 00:21:03;;;;;;;1.33;0.90;;;23.40;42.30;;;;;;4996225;28;20050;-96
2021/06/03 00:23:29;;;;;;;2.08;1.20;;;23.40;42.50;;;;;;4981057;28;20046;-96
2021/06/03 00:25:55;;;;;;;1.80;1.27;;;23.30;42.50;;;;;;5032213;28;20017;-96
2021/06/03 00:28:20;;;;;;;2.00;1.40;;;23.40;42.60;;;;;;4996978;28;20161;-95
2021/06/03 00:30:46;;;;;;;2.10;1.10;;;23.30;42.70;;;;;;4998748;28;20018;-96
2021/06/03 00:33:13;;;;;;;2.58;1.30;;;23.30;42.90;;;;;;5016636;28;20032;-95
2021/06/03 00:35:39;;;;;;;2.55;1.38;;;23.20;43.10;;;;;;5000355;28;20023;-96
2021/06/03 00:38:05;;;;;;;1.77;1.13;;;23.20;43.40;;;;;;5013557;28;20096;-96
2021/06/03 00:40:31;;;;;;;1.52;1.20;;;23.10;43.50;;;;;;4997302;28;20018;-94
2021/06/03 00:42:57;;;;;;;1.50;1.15;;;23.10;43.70;;;;;;5001704;28;20153;-93
2021/06/03 00:45:34;;;;;;;2.70;1.25;;;23.00;43.80;;;;;;5006059;28;20034;-94
2021/06/03 00:48:00;;;;;;;2.40;1.40;;;23.00;44.00;;;;;;4999595;28;20089;-93
2021/06/03 00:50:31;;;;;;;1.60;1.33;;;22.90;44.50;;;;;;5017583;28;20022;-96
2021/06/03 00:52:57;;;;;;;1.90;1.13;;;22.70;44.70;;;;;;5025085;28;20026;-94
2021/06/03 00:55:23;;;;;;;1.85;1.40;;;22.70;44.80;;;;;;4998690;28;20162;-95
2021/06/03 00:57:48;;;;;;;1.65;1.25;;;22.70;44.90;;;;;;5009978;28;20069;-96
2021/06/03 01:00:30;;;;;;;2.65;1.55;;;22.70;44.90;;;;;;4984324;28;20042;-96
2021/06/03 01:02:56;;;;;;;3.70;2.00;;;22.60;45.50;;;;;;4986853;28;20026;-96
2021/06/03 01:13:04;;;;;;;3.65;2.13;;;22.30;46.60;;;;;;5018781;28;20042;-96
2021/06/03 01:15:30;;;;;;;2.08;1.70;;;22.30;47.20;;;;;;5014157;28;20480;-96
2021/06/03 01:17:56;;;;;;;2.28;1.60;;;22.20;47.30;;;;;;5015702;28;20072;-96
2021/06/03 01:20:23;;;;;;;2.05;1.55;;;22.20;47.40;;;;;;5016987;28;20030;-95
2021/06/03 01:23:05;;;;;;;2.10;1.67;;;22.20;47.60;;;;;;5016579;28;20029;-96
2021/06/03 01:25:31;;;;;;;1.60;1.40;;;22.20;47.70;;;;;;5022964;28;20030;-95
2021/06/03 01:27:57;;;;;;;1.67;1.38;;;22.20;47.60;;;;;;5017453;28;20033;-96
2021/06/03 01:30:26;;;;;;;2.55;1.70;;;22.20;47.70;;;;;;5013667;28;20393;-94
2021/06/03 01:32:56;;;;;;;1.48;1.13;;;22.20;47.80;;;;;;5017259;28;20026;-94
2021/06/03 01:35:25;;;;;;;3.38;1.50;;;22.20;47.90;;;;;;5013480;28;20157;-90
2021/06/03 01:37:52;;;;;;;1.70;1.40;;;22.10;47.90;;;;;;5012948;28;20104;-93
2021/06/03 01:40:19;;;;;;;4.30;1.50;;;22.10;48.10;;;;;;5012119;28;20112;-93
2021/06/03 01:42:46;;;;;;;1.77;1.33;;;22.10;48.40;;;;;;5014565;28;20527;-96
2021/06/03 01:45:14;;;;;;;1.55;1.40;;;22.00;48.50;;;;;;5014028;28;20057;-96
2021/06/03 01:47:40;;;;;;;1.60;1.50;;;22.00;48.70;;;;;;5013436;28;20034;-96
2021/06/03 01:50:07;;;;;;;2.63;1.75;;;22.00;48.70;;;;;;5015363;28;20025;-95
2021/06/03 01:52:33;;;;;;;1.30;1.20;;;21.90;49.00;;;;;;5017020;28;20032;-96
2021/06/03 01:55:00;;;;;;;2.15;1.40;;;21.90;49.00;;;;;;5026172;28;20025;-96
2021/06/03 01:57:26;;;;;;;1.77;1.60;;;21.90;49.00;;;;;;5017136;28;20025;-95
2021/06/03 01:59:51;;;;;;;2.35;1.50;;;21.90;49.00;;;;;;5021723;28;20025;-95
2021/06/03 02:02:17;;;;;;;1.50;1.40;;;21.80;49.10;;;;;;5036835;28;20083;-96
2021/06/03 02:04:43;;;;;;;3.50;1.58;;;21.80;49.40;;;;;;5040559;28;20076;-96
2021/06/03 02:07:08;;;;;;;2.05;1.30;;;21.80;49.40;;;;;;5035251;28;20037;-91
2021/06/03 02:09:34;;;;;;;2.17;1.40;;;21.80;49.60;;;;;;5020002;28;20022;-89
2021/06/03 02:12:00;;;;;;;2.05;1.50;;;21.70;49.90;;;;;;5012775;28;20556;-91
2021/06/03 02:14:31;;;;;;;2.53;1.70;;;21.70;50.30;;;;;;5011157;28;20118;-91
2021/06/03 02:17:08;;;;;;;1.70;1.55;;;21.60;50.70;;;;;;5011593;28;20033;-95
2021/06/03 02:19:47;;;;;;;1.42;1.10;;;21.50;51.00;;;;;;5013842;28;20048;-91
2021/06/03 02:22:13;;;;;;;1.73;1.38;;;21.50;51.00;;;;;;5572533;22;20131;-94
2021/06/03 02:24:39;;;;;;;1.75;1.63;;;21.50;51.00;;;;;;5032939;28;20087;-94
2021/06/03 02:27:07;;;;;;;2.90;1.65;;;21.50;51.40;;;;;;5032871;28;20662;-94
2021/06/03 02:29:33;;;;;;;2.05;1.15;;;21.40;51.80;;;;;;5034427;28;20014;-94
2021/06/03 02:31:59;;;;;;;3.42;1.60;;;21.40;51.70;;;;;;5019312;28;20064;-95
2021/06/03 02:34:25;;;;;;;1.27;1.17;;;21.40;52.00;;;;;;5019387;28;20048;-96
2021/06/03 02:36:51;;;;;;;3.05;1.70;;;21.40;51.90;;;;;;5036669;28;20026;-95
2021/06/03 02:39:19;;;;;;;1.60;1.50;;;21.40;52.10;;;;;;5041632;28;20010;-96
2021/06/03 02:41:45;;;;;;;1.40;1.15;;;21.30;52.20;;;;;;5058579;28;20048;-96
2021/06/03 02:44:11;;;;;;;1.35;1.10;;;21.40;52.10;;;;;;5048927;28;20087;-96
2021/06/03 02:46:37;;;;;;;1.83;1.20;;;21.30;52.00;;;;;;5033033;28;20060;-96
2021/06/03 02:49:09;;;;;;;2.10;1.40;;;21.40;52.00;;;;;;5051772;28;20018;-96
2021/06/03 02:51:38;;;;;;;2.13;1.90;;;21.40;52.30;;;;;;5055475;28;20103;-96
2021/06/03 02:54:30;;;;;;;1.90;1.20;;;21.30;53.10;;;;;;5043442;28;20029;-94
2021/06/03 02:56:56;;;;;;;3.35;1.77;;;21.30;53.00;;;;;;5036344;28;20498;-94
2021/06/03 02:59:23;;;;;;;1.75;1.45;;;21.30;53.40;;;;;;5035806;28;20115;-93
2021/06/03 03:01:48;;;;;;;3.08;1.70;;;21.20;53.70;;;;;;5030986;28;20100;-93
2021/06/03 03:04:14;;;;;;;1.90;1.60;;;21.20;53.80;;;;;;5036314;28;20017;-94
2021/06/03 03:06:40;;;;;;;2.00;1.60;;;21.10;53.90;;;;;;5017991;28;20112;-93
2021/06/03 03:09:06;;;;;;;2.53;1.58;;;21.10;54.10;;;;;;4998155;28;20018;-95
2021/06/03 03:11:32;;;;;;;2.22;1.67;;;21.10;54.30;;;;;;5023050;28;20021;-94
2021/06/03 03:13:58;;;;;;;3.03;2.00;;;21.10;54.30;;;;;;5029648;28;20025;-94
2021/06/03 03:16:24;;;;;;;1.52;1.40;;;21.10;54.60;;;;;;5031709;28;20032;-93
2021/06/03 03:18:49;;;;;;;2.95;1.50;;;21.10;54.80;;;;;;5026876;28;20022;-94
2021/06/03 03:21:16;;;;;;;2.22;1.63;;;21.00;54.60;;;;;;5017822;28;20029;-94
2021/06/03 03:23:41;;;;;;;3.15;1.90;;;21.10;54.80;;;;;;5035578;28;20041;-95
2021/06/03 03:26:07;;;;;;;2.72;2.00;;;21.00;55.00;;;;;;5018428;28;20056;-95
2021/06/03 03:28:32;;;;;;;1.60;1.50;;;21.00;55.20;;;;;;5035822;28;20025;-95
2021/06/03 03:30:58;;;;;;;1.60;1.50;;;21.00;55.40;;;;;;5035987;28;20021;-94
2021/06/03 03:33:24;;;;;;;1.98;1.60;;;21.00;55.30;;;;;;5031494;28;20082;-95
2021/06/03 03:35:51;;;;;;;1.88;1.70;;;21.00;55.40;;;;;;5018182;28;20032;-96
2021/06/03 03:38:19;;;;;;;2.03;1.75;;;21.00;55.60;;;;;;4998615;28;20076;-96
2021/06/03 03:40:45;;;;;;;2.50;1.67;;;21.00;55.60;;;;;;5030170;28;20048;-96
2021/06/03 03:43:11;;;;;;;1.98;1.83;;;21.00;55.80;;;;;;5035758;28;20075;-95
2021/06/03 03:45:37;;;;;;;2.55;1.85;;;20.90;56.20;;;;;;5035593;28;20431;-95
2021/06/03 03:48:04;;;;;;;2.92;2.20;;;20.90;56.50;;;;;;5035365;28;20039;-96
2021/06/03 03:50:31;;;;;;;3.03;2.10;;;20.80;56.70;;;;;;5035753;28;20042;-95
2021/06/03 03:52:57;;;;;;;2.15;1.92;;;20.80;57.20;;;;;;5017752;28;20025;-95
2021/06/03 03:55:24;;;;;;;2.83;1.90;;;20.70;57.10;;;;;;5017752;28;20032;-96
2021/06/03 03:57:49;;;;;;;2.58;1.92;;;20.80;57.00;;;;;;5034943;28;20018;-96
2021/06/03 04:00:20;;;;;;;3.38;2.33;;;20.80;57.50;;;;;;5017480;28;20028;-94
2021/06/03 04:02:45;;;;;;;2.60;2.08;;;20.70;57.40;;;;;;5037017;28;20020;-96
2021/06/03 04:05:12;;;;;;;2.20;2.00;;;20.70;57.70;;;;;;5035933;28;20049;-96
2021/06/03 04:07:38;;;;;;;4.00;2.10;;;20.60;57.80;;;;;;5037213;28;20034;-96
2021/06/03 04:15:44;;;;;;;2.78;2.38;;;20.60;58.10;;;;;;5302000;22;20057;-92
2021/06/03 04:18:10;;;;;;;2.15;1.95;;;20.60;58.40;;;;;;5034014;28;20635;-92
2021/06/03 04:20:35;;;;;;;2.03;1.90;;;20.60;58.20;;;;;;5017212;28;20028;-92
2021/06/03 04:23:02;;;;;;;2.35;2.08;;;20.70;58.10;;;;;;5020131;28;20026;-93
2021/06/03 04:25:28;;;;;;;2.33;2.13;;;20.60;58.50;;;;;;5034587;28;20025;-91
2021/06/03 04:27:54;;;;;;;2.25;1.90;;;20.60;58.80;;;;;;5034427;28;20040;-91
2021/06/03 04:30:23;;;;;;;2.22;1.83;;;20.60;58.50;;;;;;5034357;28;20097;-92
2021/06/03 04:32:49;;;;;;;3.50;2.30;;;20.60;59.00;;;;;;5034629;28;20766;-95
2021/06/03 04:35:17;;;;;;;3.72;2.40;;;20.60;59.30;;;;;;5036907;28;20119;-96
2021/06/03 04:37:44;;;;;;;3.03;2.03;;;20.60;59.70;;;;;;5036877;28;20047;-95
2021/06/03 04:40:13;;;;;;;2.60;1.80;;;20.70;59.50;;;;;;5025431;28;20028;-95
2021/06/03 04:42:38;;;;;;;2.42;2.10;;;20.70;59.40;;;;;;5034111;28;20026;-94
2021/06/03 04:45:06;;;;;;;2.13;1.92;;;20.70;59.50;;;;;;5034788;28;20032;-91
2021/06/03 04:47:32;;;;;;;2.50;2.20;;;20.70;59.30;;;;;;5032575;28;20064;-93
2021/06/03 04:49:58;;;;;;;2.35;2.05;;;20.80;59.30;;;;;;5032883;28;20045;-94
2021/06/03 04:52:25;;;;;;;2.17;1.80;;;20.80;59.80;;;;;;5033194;28;20120;-92
2021/06/03 04:54:51;;;;;;;2.78;1.50;;;20.90;58.90;;;;;;5032789;28;20465;-92
2021/06/03 04:57:17;;;;;;;2.10;1.90;;;21.10;58.50;;;;;;5033601;28;20021;-95
2021/06/03 04:59:42;;;;;;;1.85;1.70;;;21.10;58.20;;;;;;5033910;28;20083;-93
2021/06/03 05:02:08;;;;;;;2.03;1.83;;;21.20;58.00;;;;;;5034038;28;20539;-96
2021/06/03 05:04:34;;;;;;;2.97;2.35;;;21.30;58.00;;;;;;5033769;28;20030;-95
2021/06/03 05:06:59;;;;;;;2.92;2.10;;;21.30;58.20;;;;;;5016565;28;20037;-95
2021/06/03 05:09:25;;;;;;;3.60;2.60;;;21.40;58.30;;;;;;5032558;28;20112;-94
2021/06/03 05:12:11;;;;;;;2.55;2.20;;;21.30;58.60;;;;;;5028133;28;20018;-96
2021/06/03 05:15:14;;;;;;;3.00;2.53;;;21.30;58.60;;;;;;5057643;28;20028;-96
2021/06/03 05:17:40;;;;;;;2.97;2.13;;;21.30;58.70;;;;;;5016270;28;20029;-96
2021/06/03 05:20:08;;;;;;;2.50;2.28;;;21.40;58.80;;;;;;5013951;28;20025;-96
2021/06/03 05:22:36;;;;;;;4.03;2.53;;;21.40;58.70;;;;;;5015312;28;20030;-94
2021/06/03 05:25:03;;;;;;;3.53;2.78;;;21.50;59.00;;;;;;4996387;28;20022;-94
2021/06/03 05:27:29;;;;;;;2.88;2.35;;;21.40;59.40;;;;;;5013692;28;20034;-95
2021/06/03 05:29:54;;;;;;;2.53;2.30;;;21.40;59.30;;;;;;5019690;28;20036;-96
2021/06/03 05:32:20;;;;;;;2.33;2.13;;;21.50;59.10;;;;;;5021775;28;20017;-96
2021/06/03 05:34:45;;;;;;;2.35;2.00;;;21.50;59.00;;;;;;5034448;28;20033;-96
2021/06/03 05:37:11;;;;;;;3.80;2.00;;;21.50;58.90;;;;;;5018028;28;20041;-95
2021/06/03 05:47:23;;;;;;;2.20;2.00;;;21.50;59.80;;;;;;5819443;22;20032;-96
2021/06/03 05:49:49;;;;;;;2.40;1.98;;;21.50;59.80;;;;;;5036238;22;20148;-92
2021/06/03 05:52:14;;;;;;;2.45;2.03;;;21.50;59.80;;;;;;5032778;28;20506;-93
2021/06/03 05:54:40;;;;;;;3.20;2.63;;;21.60;59.80;;;;;;5032686;28;20385;-91
2021/06/03 05:57:06;;;;;;;11.02;2.63;;;21.50;60.20;;;;;;5033011;28;20072;-90
2021/06/03 05:59:31;;;;;;;5.25;2.40;;;21.60;60.00;;;;;;5033684;28;20026;-90
2021/06/03 06:02:03;;;;;;;4.15;2.97;;;21.70;60.00;;;;;;5033862;28;20029;-91
2021/06/03 06:06:55;;;;;;;3.63;2.47;;;21.90;59.80;;;;;;5033379;28;20437;-92
2021/06/03 06:09:21;;;;;;;3.05;2.63;;;22.00;59.70;;;;;;5034498;28;20105;-94
2021/06/03 06:11:47;;;;;;;4.82;3.60;;;22.10;59.60;;;;;;5016727;28;20116;-93
2021/06/03 06:14:13;;;;;;;3.35;2.50;;;22.20;59.60;;;;;;5011884;28;20060;-93
2021/06/03 06:16:40;;;;;;;2.90;2.63;;;22.50;59.40;;;;;;5013385;28;20049;-95
2021/06/03 06:19:08;;;;;;;3.55;2.80;;;22.80;59.00;;;;;;5032647;28;20108;-95
2021/06/03 06:21:34;;;;;;;4.57;2.50;;;22.80;59.00;;;;;;5033278;28;20532;-94
2021/06/03 06:24:01;;;;;;;3.72;2.58;;;22.80;59.00;;;;;;5033269;28;20104;-95
2021/06/03 06:26:27;;;;;;;3.75;2.58;;;22.70;59.10;;;;;;5014822;28;20476;-88
2021/06/03 06:28:54;;;;;;;2.90;2.58;;;22.80;59.20;;;;;;5012690;28;20387;-89
2021/06/03 06:31:21;;;;;;;2.53;2.17;;;23.10;58.80;;;;;;5031631;28;20017;-90
2021/06/03 06:33:47;;;;;;;4.05;2.60;;;23.40;58.40;;;;;;5014064;28;20051;-90
2021/06/03 06:36:15;;;;;;;4.63;2.83;;;23.60;58.00;;;;;;5014730;28;20064;-91
2021/06/03 06:38:41;;;;;;;3.15;2.38;;;23.90;57.60;;;;;;5032345;28;20079;-92
2021/06/03 06:41:09;;;;;;;2.92;2.28;;;24.10;57.20;;;;;;5015219;28;20049;-92
2021/06/03 06:43:38;;;;;;;2.40;2.20;;;24.30;56.70;;;;;;5032098;28;20028;-93
2021/06/03 06:46:05;;;;;;;3.38;2.92;;;24.60;56.40;;;;;;5014559;28;20034;-89
2021/06/03 06:48:31;;;;;;;4.53;3.28;;;24.80;56.00;;;;;;5013972;28;20034;-88
2021/06/03 06:50:56;;;;;;;5.03;3.50;;;24.80;56.00;;;;;;5031588;28;20021;-89
2021/06/03 06:53:22;;;;;;;5.55;3.25;;;24.90;55.80;;;;;;5012947;28;20388;-88
2021/06/03 06:55:48;;;;;;;4.43;3.10;;;24.90;55.70;;;;;;5031390;28;20484;-90
2021/06/03 06:58:16;;;;;;;4.03;3.30;;;25.00;55.70;;;;;;5024366;28;20029;-95
2021/06/03 07:00:44;;;;;;;4.57;3.40;;;25.10;55.60;;;;;;5003375;28;20033;-92
2021/06/03 07:03:15;;;;;;;4.90;3.92;;;25.30;55.30;;;;;;5013895;28;20495;-93
2021/06/03 07:05:45;;;;;;;3.60;3.13;;;25.20;55.40;;;;;;5032895;28;20021;-91
2021/06/03 07:08:11;;;;;;;5.15;3.45;;;25.30;55.40;;;;;;5016293;28;20468;-89
2021/06/03 07:10:37;;;;;;;3.30;3.00;;;25.40;55.30;;;;;;5014920;28;20036;-92
2021/06/03 07:13:04;;;;;;;4.93;3.78;;;25.50;55.20;;;;;;5032229;28;20018;-91
2021/06/03 07:15:29;;;;;;;5.78;5.13;;;25.40;55.20;;;;;;4998290;28;20112;-94
2021/06/03 07:17:56;;;;;;;6.40;4.70;;;25.40;55.20;;;;;;5023729;28;20464;-90
2021/06/03 07:20:23;;;;;;;4.20;3.70;;;25.50;55.40;;;;;;5016325;28;20506;-90
2021/06/03 07:22:52;;;;;;;3.63;2.72;;;25.50;55.20;;;;;;5004330;28;20018;-90
2021/06/03 07:25:20;;;;;;;5.10;4.05;;;25.80;54.90;;;;;;5034815;28;20052;-87
2021/06/03 07:27:48;;;;;;;5.15;4.50;;;25.70;54.70;;;;;;5018258;28;20045;-91
2021/06/03 07:30:20;;;;;;;4.55;3.58;;;25.60;54.80;;;;;;5018488;28;20024;-92
2021/06/03 07:32:46;;;;;;;5.13;3.60;;;25.70;54.90;;;;;;5035617;28;20036;-94
2021/06/03 07:35:13;;;;;;;4.90;3.45;;;25.80;54.80;;;;;;5036663;28;20021;-93
2021/06/03 07:37:41;;;;;;;3.72;2.70;;;26.00;54.40;;;;;;5018609;28;20032;-93
2021/06/03 07:40:09;;;;;;;4.20;3.38;;;26.20;54.20;;;;;;5017991;28;20096;-92
2021/06/03 07:42:35;;;;;;;3.28;2.97;;;26.40;53.90;;;;;;5035559;28;20058;-93
2021/06/03 07:45:01;;;;;;;5.55;3.33;;;26.60;53.60;;;;;;5017873;28;20053;-92
2021/06/03 07:47:26;;;;;;;4.50;3.75;;;26.90;53.20;;;;;;5017447;28;20061;-93
2021/06/03 07:49:52;;;;;;;6.53;5.55;;;26.90;53.50;;;;;;5035014;28;20041;-91
2021/06/03 07:52:18;;;;;;;7.78;4.25;;;26.80;52.60;;;;;;5033594;28;20036;-93
2021/06/03 07:54:44;;;;;;;7.82;5.95;;;26.70;52.90;;;;;;5037348;28;20108;-91
2021/06/03 07:57:09;;;;;;;4.90;3.80;;;26.60;52.70;;;;;;5046515;28;20028;-92
2021/06/03 08:00:12;;;;;;;4.90;4.32;;;26.50;52.90;;;;;;5035613;28;20021;-95
2021/06/03 08:02:38;;;;;;;4.32;3.50;;;26.70;52.80;;;;;;4958980;29;20651;-94
2021/06/03 08:05:05;;;;;;;3.72;3.33;;;26.80;52.80;;;;;;5026975;28;20044;-93
2021/06/03 08:07:30;;;;;;;3.60;3.15;;;26.90;52.50;;;;;;5040338;28;20038;-89
2021/06/03 08:09:56;;;;;;;4.72;4.22;;;27.00;52.20;;;;;;5014728;28;20435;-92
2021/06/03 08:12:28;;;;;;;4.65;3.78;;;27.00;52.20;;;;;;5037536;28;20066;-96
2021/06/03 08:14:54;;;;;;;3.80;3.45;;;27.10;52.00;;;;;;5409474;22;20069;-92
2021/06/03 08:19:55;;;;;;;4.38;3.60;;;27.20;51.50;;;;;;5454268;22;20041;-93
2021/06/03 08:22:21;;;;;;;4.90;4.05;;;27.20;51.50;;;;;;5027795;28;20018;-91
2021/06/03 08:24:46;;;;;;;5.82;3.97;;;27.20;51.50;;;;;;5005151;28;20023;-93
2021/06/03 08:42:51;;;;;;;5.18;4.07;;;26.70;52.30;;;;;;5014584;28;20493;-95
2021/06/03 08:45:17;;;;;;;4.53;3.80;;;26.80;52.70;;;;;;4980112;28;20133;-96
2021/06/03 08:50:20;;;;;;;4.88;4.03;;;26.90;52.40;;;;;;5611277;22;20088;-96
2021/06/03 08:52:55;;;;;;;4.15;3.05;;;26.90;52.30;;;;;;5045734;28;20044;-96
2021/06/03 08:58:15;;;;;;;3.45;3.08;;;27.20;51.90;;;;;;5054621;28;20546;-96
2021/06/03 09:00:45;;;;;;;5.45;3.67;;;27.40;52.00;;;;;;5016102;28;20121;-96
2021/06/03 09:08:30;;;;;;;3.50;3.08;;;27.30;50.80;;;;;;5125771;22;20055;-96
2021/06/03 09:13:34;;;;;;;3.45;2.80;;;27.20;50.90;;;;;;5309451;22;20054;-96
2021/06/03 09:26:30;;;;;;;3.15;2.55;;;27.80;50.40;;;;;;5187868;22;20049;-96
2021/06/03 09:28:58;;;;;;;6.72;4.03;;;28.00;50.30;;;;;;5056076;22;20053;-96
2021/06/03 09:31:29;;;;;;;4.40;3.03;;;28.00;49.90;;;;;;5130456;22;20075;-93
2021/06/03 09:34:18;;;;;;;3.92;3.25;;;28.10;50.00;;;;;;5012112;28;20080;-96
2021/06/03 09:39:22;;;;;;;4.35;3.30;;;27.90;50.00;;;;;;5665218;22;20046;-93
2021/06/03 09:41:53;;;;;;;3.85;3.05;;;28.00;50.60;;;;;;4996216;28;20026;-93
2021/06/03 09:44:40;;;;;;;4.15;3.72;;;28.00;50.40;;;;;;5012478;28;20088;-93
2021/06/03 09:47:14;;;;;;;5.72;4.97;;;28.10;50.60;;;;;;5014985;28;20072;-96
2021/06/03 09:49:42;;;;;;;3.83;3.13;;;28.00;50.60;;;;;;4995533;28;20025;-95
2021/06/03 09:52:14;;;;;;;4.75;3.90;;;28.00;50.80;;;;;;5007394;28;20087;-94
2021/06/03 09:54:50;;;;;;;6.10;4.13;;;28.00;50.70;;;;;;5024354;28;20022;-91
2021/06/03 10:00:12;;;;;;;6.95;5.18;;;28.20;50.80;;;;;;5680620;22;20464;-97
2021/06/03 10:02:38;;;;;;;4.82;3.40;;;28.10;50.60;;;;;;5045995;28;20029;-96
2021/06/03 10:10:15;;;;;;;6.35;3.25;;;28.00;50.80;;;;;;5862110;22;19925;-96
2021/06/03 10:12:46;;;;;;;3.10;2.78;;;28.10;51.00;;;;;;5040269;28;20039;-95
2021/06/03 10:15:20;;;;;;;5.38;3.90;;;28.10;50.90;;;;;;5032573;28;20506;-93
2021/06/03 10:17:51;;;;;;;4.72;3.70;;;28.20;51.00;;;;;;5046743;28;20052;-96
2021/06/03 10:20:22;;;;;;;3.47;2.78;;;28.10;51.00;;;;;;5345996;22;20041;-95
2021/06/03 10:22:52;;;;;;;4.25;2.88;;;28.10;51.10;;;;;;5520798;23;20075;-95
2021/06/03 10:25:26;;;;;;;3.28;2.80;;;28.10;51.00;;;;;;5239470;23;20034;-96
2021/06/03 10:30:29;;;;;;;5.40;3.30;;;28.20;50.80;;;;;;5008801;28;20042;-96
2021/06/03 10:33:00;;;;;;;3.00;2.70;;;28.10;51.10;;;;;;5011373;28;20061;-96
2021/06/03 10:35:30;;;;;;;4.50;3.10;;;28.10;51.20;;;;;;5246791;22;20051;-96
2021/06/03 10:38:05;;;;;;;4.57;2.80;;;28.10;51.20;;;;;;5075004;28;20430;-96
2021/06/03 10:40:33;;;;;;;2.92;2.10;;;28.00;51.30;;;;;;5044974;28;20040;-96
2021/06/03 10:43:00;;;;;;;2.75;2.10;;;27.90;51.50;;;;;;5056065;28;20025;-96
2021/06/03 10:48:09;;;;;;;2.97;2.25;;;28.20;51.30;;;;;;5510040;22;20049;-96
2021/06/03 11:01:22;;;;;;;4.03;3.28;;;27.90;53.10;;;;;;5586316;22;20067;-96
2021/06/03 11:06:33;;;;;;;4.95;3.70;;;27.70;53.90;;;;;;5242554;22;20049;-96
2021/06/03 11:09:06;;;;;;;6.10;4.18;;;27.60;54.30;;;;;;5019774;28;20033;-94
2021/06/03 11:11:36;;;;;;;5.00;3.45;;;27.40;54.40;;;;;;5033227;28;20026;-96
2021/06/03 11:14:11;;;;;;;6.10;4.07;;;27.20;55.40;;;;;;5002920;28;20053;-93
2021/06/03 11:16:36;;;;;;;6.75;3.88;;;27.00;56.80;;;;;;5016555;28;20033;-93
2021/06/03 11:19:02;;;;;;;4.75;2.97;;;26.70;58.10;;;;;;5017437;28;20033;-93
2021/06/03 11:24:08;;;;;;;4.93;3.25;;;26.30;59.40;;;;;;5023355;28;20030;-92
2021/06/03 11:26:43;;;;;;;6.90;3.80;;;26.30;59.40;;;;;;5017345;28;20062;-94
2021/06/03 11:29:14;;;;;;;4.25;3.40;;;26.20;59.60;;;;;;4997700;28;20034;-94
2021/06/03 11:31:50;;;;;;;4.50;3.85;;;26.20;59.90;;;;;;5022501;28;20024;-94
2021/06/03 11:34:23;;;;;;;3.72;3.35;;;26.30;60.10;;;;;;5015740;28;20109;-94
2021/06/03 11:37:03;;;;;;;5.65;4.03;;;26.30;60.40;;;;;;5014175;28;20032;-95
2021/06/03 11:39:32;;;;;;;7.22;6.00;;;26.30;60.40;;;;;;4997723;28;20026;-96
2021/06/03 11:42:16;;;;;;;6.32;5.00;;;26.30;60.70;;;;;;5017509;28;20018;-95
2021/06/03 11:45:11;;;;;;;6.20;5.60;;;26.40;61.00;;;;;;4997112;28;20022;-93
2021/06/03 11:47:36;;;;;;;7.70;6.22;;;26.40;60.90;;;;;;5003885;28;20038;-95
2021/06/03 11:50:26;;;;;;;7.75;6.13;;;26.40;60.90;;;;;;5028885;28;20491;-96
2021/06/03 11:53:01;;;;;;;5.57;4.80;;;26.30;61.30;;;;;;5028111;28;20167;-95
2021/06/03 11:55:33;;;;;;;8.57;6.25;;;26.30;61.20;;;;;;4991645;28;20029;-94
2021/06/03 11:58:30;;;;;;;5.43;4.63;;;26.50;61.40;;;;;;5001310;28;20030;-92
2021/06/03 12:01:04;;;;;;;6.82;6.10;;;26.70;61.10;;;;;;5000433;28;20046;-92
2021/06/03 12:03:41;;;;;;;5.03;4.05;;;26.80;60.90;;;;;;5022371;28;20033;-93
2021/06/03 12:06:24;;;;;;;6.82;6.10;;;26.80;60.90;;;;;;5027484;28;20038;-93
2021/06/03 12:08:58;;;;;;;7.50;5.40;;;26.80;61.00;;;;;;5016012;28;20026;-95
2021/06/03 12:11:41;;;;;;;4.78;4.10;;;26.70;61.00;;;;;;5018938;28;20111;-94
2021/06/03 12:14:09;;;;;;;4.22;3.22;;;26.80;61.00;;;;;;5010731;28;20053;-95
2021/06/03 12:16:37;;;;;;;3.40;3.10;;;26.90;60.60;;;;;;5032613;28;20033;-95
2021/06/03 12:19:07;;;;;;;3.70;3.40;;;27.10;60.30;;;;;;5029941;28;20029;-94
2021/06/03 12:21:33;;;;;;;3.70;2.00;;;27.40;60.30;;;;;;5021293;28;20042;-95
2021/06/03 12:23:58;;;;;;;4.22;2.75;;;27.50;60.00;;;;;;5019197;28;20018;-95
2021/06/03 12:26:24;;;;;;;3.05;2.72;;;27.40;59.60;;;;;;5000535;28;20030;-94
2021/06/03 12:28:52;;;;;;;3.10;2.58;;;27.50;59.60;;;;;;5018256;28;20014;-94
2021/06/03 12:31:25;;;;;;;5.43;2.20;;;27.50;59.50;;;;;;5018380;28;20022;-94
2021/06/03 12:33:52;;;;;;;3.60;2.60;;;27.40;59.30;;;;;;5019972;28;20036;-94
2021/06/03 12:36:25;;;;;;;3.75;2.95;;;27.30;59.30;;;;;;5005357;28;20026;-96
2021/06/03 12:38:56;;;;;;;4.43;3.78;;;27.20;59.70;;;;;;5000243;28;20033;-93
2021/06/03 12:41:35;;;;;;;3.33;2.90;;;26.90;60.30;;;;;;5019930;28;20022;-95
2021/06/03 12:44:05;;;;;;;4.15;3.08;;;26.70;60.50;;;;;;5014415;28;20046;-93
2021/06/03 12:46:51;;;;;;;4.57;2.85;;;26.50;60.50;;;;;;5014415;28;20044;-94
2021/06/03 12:49:26;;;;;;;3.17;2.50;;;26.50;60.60;;;;;;4994744;28;20104;-95
2021/06/03 12:51:59;;;;;;;1.98;1.88;;;26.30;60.50;;;;;;4997243;28;20037;-96
2021/06/03 12:54:33;;;;;;;2.13;1.92;;;26.20;60.50;;;;;;5025654;28;20079;-92
2021/06/03 12:57:00;;;;;;;2.03;1.83;;;26.30;60.60;;;;;;5015722;28;20057;-94
2021/06/03 12:59:33;;;;;;;3.25;2.20;;;26.40;60.30;;;;;;5024362;28;20018;-95
2021/06/03 13:02:02;;;;;;;2.22;1.70;;;26.50;59.70;;;;;;4998705;28;20037;-94
2021/06/03 13:04:43;;;;;;;2.85;2.50;;;26.60;59.50;;;;;;5020904;28;20108;-96
2021/06/03 13:07:11;;;;;;;2.47;2.28;;;26.70;59.20;;;;;;5013400;28;20085;-96
2021/06/03 13:09:42;;;;;;;2.20;2.00;;;26.80;59.00;;;;;;5015517;28;20014;-94
2021/06/03 13:12:22;;;;;;;4.50;2.42;;;26.80;59.00;;;;;;5015438;28;21843;-94
2021/06/03 13:14:51;;;;;;;1.90;1.80;;;26.90;59.00;;;;;;5019475;28;20026;-96
2021/06/03 13:17:22;;;;;;;2.33;2.13;;;26.90;59.00;;;;;;5002404;28;20017;-93
2021/06/03 13:19:49;;;;;;;2.47;2.20;;;26.90;58.90;;;;;;4997486;28;20126;-94
2021/06/03 13:22:17;;;;;;;2.15;1.73;;;26.80;58.60;;;;;;5015740;28;20026;-92
2021/06/03 13:24:48;;;;;;;2.67;2.47;;;26.80;58.50;;;;;;4998836;28;20026;-96
2021/06/03 13:27:28;;;;;;;3.30;2.30;;;26.50;58.80;;;;;;5017826;28;20029;-94
2021/06/03 13:30:10;;;;;;;3.10;2.80;;;26.40;59.70;;;;;;5006435;28;20288;-93
2021/06/03 13:32:36;;;;;;;2.50;2.30;;;26.30;60.20;;;;;;4990933;28;20425;-95
2021/06/03 13:35:06;;;;;;;2.35;2.15;;;26.30;60.90;;;;;;5017228;28;20033;-96
2021/06/03 13:37:34;;;;;;;2.65;2.20;;;26.20;61.60;;;;;;5013533;28;20018;-96
2021/06/03 13:40:11;;;;;;;2.45;2.03;;;26.10;62.20;;;;;;4995304;28;20029;-94
2021/06/03 13:47:50;;;;;;;3.13;2.83;;;25.90;63.40;;;;;;5683453;22;20032;-96
2021/06/03 13:50:48;;;;;;;3.75;2.60;;;25.80;63.60;;;;;;5027956;28;20101;-96
2021/06/03 13:53:28;;;;;;;3.47;3.17;;;25.90;63.90;;;;;;5027365;28;20503;-96
2021/06/03 13:55:58;;;;;;;4.10;3.55;;;26.00;64.10;;;;;;5020095;28;20021;-95
2021/06/03 13:58:46;;;;;;;3.70;3.28;;;26.10;64.10;;;;;;5001503;28;20037;-96
2021/06/03 14:01:27;;;;;;;5.20;4.50;;;26.50;64.00;;;;;;5014053;28;20018;-96
2021/06/03 14:04:15;;;;;;;6.55;5.35;;;26.80;63.60;;;;;;5013623;28;20025;-96
2021/06/03 14:06:56;;;;;;;6.30;4.75;;;27.00;63.60;;;;;;4996554;28;20132;-92
2021/06/03 14:09:29;;;;;;;6.60;5.97;;;27.20;63.70;;;;;;5012593;28;20025;-90
2021/06/03 14:12:24;;;;;;;7.05;5.70;;;27.40;63.20;;;;;;4995959;28;20095;-90
2021/06/03 14:15:07;;;;;;;5.13;4.55;;;27.60;62.70;;;;;;5016594;28;20037;-90
2021/06/03 14:17:35;;;;;;;6.22;5.18;;;27.70;62.20;;;;;;4994953;28;20036;-90
2021/06/03 14:20:26;;;;;;;5.63;4.95;;;28.10;61.50;;;;;;4992150;28;20496;-90
2021/06/03 14:22:51;;;;;;;5.90;5.30;;;28.30;61.30;;;;;;5014078;28;20492;-92
2021/06/03 14:25:17;;;;;;;5.80;5.15;;;28.60;60.70;;;;;;5004724;28;20026;-90
2021/06/03 14:27:54;;;;;;;6.47;5.07;;;28.70;60.20;;;;;;5025307;28;20072;-88
2021/06/03 14:30:26;;;;;;;6.38;4.88;;;28.90;59.60;;;;;;5011375;28;20037;-87
2021/06/03 14:32:56;;;;;;;6.15;5.55;;;29.00;58.90;;;;;;5016811;28;20049;-87
2021/06/03 14:35:42;;;;;;;5.72;5.22;;;29.10;58.50;;;;;;4998481;28;20022;-87
2021/06/03 14:38:10;;;;;;;7.32;6.63;;;29.20;58.10;;;;;;5004083;28;20026;-87
2021/06/03 14:40:55;;;;;;;9.73;8.50;;;29.30;57.30;;;;;;5013646;28;20489;-87
2021/06/03 14:43:23;;;;;;;8.40;7.47;;;29.20;56.10;;;;;;4994231;28;20025;-87